Terminal Aerodrome Forecast
Issued by NWS

Home | Current Version | Previous Version | Text Only | Print | Product List | Glossary On
Versions: 1 2 3 4 5 6 7 8 9 10 11 12 13 14 15 16 17 18 19
000
FTUS46 KSEW 041400 AAA
TAFHQM
TAF AMD
KHQM 041455Z 0415/0512 25007KT P6SM OVC030
     FM042200 22014KT P6SM -RA BKN020 OVC040
     FM050600 18008KT P6SM VCSH BKN015 BKN030=

USA.gov is the U.S. government's official web portal to all federal, state and local government web resources and services.